createdAt,value
2018-03-28T00:02:25.329Z,75.10
2018-03-28T00:04:54.605Z,75.40
2018-03-28T00:07:23.552Z,77.00
2018-03-28T00:09:52.797Z,75.70
2018-03-28T00:12:21.997Z,72.10
2018-03-28T00:14:50.727Z,73.80
2018-03-28T00:17:19.350Z,72.20
2018-03-28T00:19:49.098Z,73.40
2018-03-28T00:22:18.234Z,73.90
2018-03-28T00:24:48.272Z,74.30
2018-03-28T00:27:17.272Z,77.30
2018-03-28T00:29:46.005Z,78.20
2018-03-28T00:32:15.012Z,76.40
2018-03-28T00:34:43.746Z,75.70
2018-03-28T00:37:12.389Z,75.50
2018-03-28T00:39:41.955Z,76.30
2018-03-28T00:42:12.356Z,76.00
2018-03-28T00:44:41.861Z,76.50
2018-03-28T00:47:11.045Z,76.40
2018-03-28T00:49:40.780Z,76.70
2018-03-28T00:52:09.896Z,76.70
2018-03-28T00:54:38.493Z,77.20
2018-03-28T00:57:07.299Z,77.50
2018-03-28T00:59:36.492Z,78.80
2018-03-28T01:02:05.763Z,76.00
2018-03-28T01:04:35.174Z,76.00
2018-03-28T01:07:04.689Z,74.20
2018-03-28T01:09:34.127Z,74.70
2018-03-28T01:12:04.059Z,75.70
2018-03-28T01:14:33.829Z,75.90
2018-03-28T01:17:02.662Z,75.90
2018-03-28T01:19:32.444Z,76.40
2018-03-28T01:22:01.088Z,77.10
2018-03-28T01:24:30.123Z,76.80
2018-03-28T01:26:58.910Z,77.10
2018-03-28T01:29:29.796Z,77.60
2018-03-28T01:31:58.841Z,78.80
2018-03-28T01:34:29.872Z,77.80
2018-03-28T01:36:58.903Z,77.50
2018-03-28T01:39:27.990Z,77.30
2018-03-28T01:41:57.019Z,76.70
2018-03-28T01:44:25.726Z,77.10
2018-03-28T01:46:54.634Z,77.80
2018-03-28T01:49:24.256Z,80.10
2018-03-28T01:51:53.300Z,77.80
2018-03-28T01:54:22.725Z,77.60
2018-03-28T01:56:51.355Z,77.20
2018-03-28T01:59:19.928Z,78.30
2018-03-28T02:01:49.107Z,77.60
2018-03-28T02:04:19.603Z,77.80
2018-03-28T02:06:48.926Z,77.80
2018-03-28T02:09:18.410Z,77.90
2018-03-28T02:11:47.916Z,77.60
2018-03-28T02:14:16.637Z,77.60
2018-03-28T02:16:45.987Z,77.50
2018-03-28T02:19:15.095Z,77.50
2018-03-28T02:21:44.195Z,77.60
2018-03-28T02:24:13.844Z,77.90
2018-03-28T02:26:42.947Z,77.80
2018-03-28T02:29:12.728Z,78.90
2018-03-28T02:31:43.143Z,78.80
2018-03-28T02:34:11.945Z,79.00
2018-03-28T02:36:41.068Z,79.00
2018-03-28T02:39:10.986Z,78.80
2018-03-28T02:41:40.828Z,78.50
2018-03-28T02:44:09.468Z,78.80
2018-03-28T02:46:38.128Z,80.30
2018-03-28T02:49:06.753Z,80.00
2018-03-28T02:51:35.845Z,79.70
2018-03-28T02:54:04.536Z,79.50
2018-03-28T02:56:34.261Z,80.50
2018-03-28T02:59:04.499Z,80.90
2018-03-28T03:01:33.993Z,80.20
2018-03-28T03:04:02.780Z,81.30
2018-03-28T03:06:31.587Z,82.00
2018-03-28T03:09:00.631Z,81.10
2018-03-28T03:11:29.952Z,81.50
2018-03-28T03:13:59.108Z,81.90
2018-03-28T03:16:29.099Z,83.00
2018-03-28T03:18:59.218Z,83.40
2018-03-28T03:21:27.754Z,83.40
2018-03-28T03:23:56.364Z,83.40
2018-03-28T03:26:25.322Z,82.90
2018-03-28T03:28:55.258Z,83.00
2018-03-28T03:31:25.230Z,82.20
2018-03-28T03:33:53.890Z,82.20
2018-03-28T03:36:22.830Z,82.10
2018-03-28T03:38:51.472Z,81.80
2018-03-28T03:41:20.917Z,81.70
2018-03-28T03:43:49.455Z,82.60
2018-03-28T03:46:18.119Z,82.30
2018-03-28T03:48:47.302Z,82.20
2018-03-28T03:51:16.095Z,82.40
2018-03-28T03:53:44.936Z,82.20
2018-03-28T03:56:14.363Z,82.10
2018-03-28T03:58:43.721Z,82.50
2018-03-28T04:01:12.691Z,82.50
2018-03-28T04:03:41.254Z,82.60
2018-03-28T04:06:10.547Z,83.00
2018-03-28T04:08:39.344Z,83.80
2018-03-28T04:11:08.517Z,84.60
2018-03-28T04:13:37.116Z,85.30
2018-03-28T04:16:06.585Z,85.60
2018-03-28T04:18:36.082Z,85.50
2018-03-28T04:21:05.014Z,85.60
2018-03-28T04:23:33.589Z,85.60
2018-03-28T04:26:02.371Z,85.30
2018-03-28T04:28:31.116Z,85.30
2018-03-28T04:31:00.015Z,85.60
2018-03-28T04:33:28.707Z,85.80
2018-03-28T04:35:58.885Z,86.00
2018-03-28T04:38:28.063Z,85.90
2018-03-28T04:40:57.246Z,85.90
2018-03-28T04:43:26.234Z,85.90
2018-03-28T04:45:55.297Z,85.40
2018-03-28T04:48:25.047Z,85.10
2018-03-28T04:50:54.418Z,85.10
2018-03-28T04:53:23.321Z,85.00
2018-03-28T04:55:52.200Z,85.10
2018-03-28T04:58:21.911Z,85.10
2018-03-28T05:00:52.007Z,85.10
2018-03-28T05:03:21.899Z,84.90
2018-03-28T05:05:50.933Z,84.90
2018-03-28T05:08:20.497Z,84.80
2018-03-28T05:10:49.165Z,84.70
2018-03-28T05:13:17.866Z,84.80
2018-03-28T05:15:49.205Z,84.80
2018-03-28T05:18:18.347Z,84.90
2018-03-28T05:20:47.906Z,85.10
2018-03-28T05:23:17.512Z,84.60
2018-03-28T05:25:47.955Z,84.60
2018-03-28T05:28:17.153Z,84.20
2018-03-28T05:30:46.774Z,84.00
2018-03-28T05:33:16.240Z,83.90
2018-03-28T05:35:45.005Z,83.90
2018-03-28T05:38:15.746Z,83.40
2018-03-28T05:40:44.954Z,83.40
2018-03-28T05:43:14.077Z,83.10
2018-03-28T05:45:43.001Z,83.20
2018-03-28T05:48:12.787Z,83.50
2018-03-28T05:50:41.723Z,83.50
2018-03-28T05:53:10.484Z,83.40
2018-03-28T05:55:39.333Z,83.60
2018-03-28T05:58:08.721Z,83.60
2018-03-28T06:00:38.167Z,83.60
2018-03-28T06:03:07.190Z,83.20
2018-03-28T06:05:36.413Z,82.60
2018-03-28T06:08:05.829Z,83.20
2018-03-28T06:10:35.799Z,83.00
2018-03-28T06:13:04.668Z,83.10
2018-03-28T06:15:34.214Z,82.00
2018-03-28T06:18:03.867Z,82.00
2018-03-28T06:20:33.061Z,82.00
2018-03-28T06:23:02.047Z,81.40
2018-03-28T06:25:30.938Z,80.50
2018-03-28T06:27:59.667Z,79.10
2018-03-28T06:30:30.003Z,77.80
2018-03-28T06:32:58.811Z,77.40
2018-03-28T06:35:28.061Z,76.70
2018-03-28T06:37:58.505Z,76.80
2018-03-28T06:40:29.051Z,75.90
2018-03-28T06:42:57.891Z,75.50
2018-03-28T06:45:27.827Z,76.00
2018-03-28T06:48:00.330Z,75.60
2018-03-28T06:50:30.310Z,76.50
2018-03-28T06:52:59.209Z,76.30
2018-03-28T06:55:28.807Z,76.70
2018-03-28T06:57:57.888Z,77.30
2018-03-28T07:00:27.500Z,75.70
2018-03-28T07:02:56.714Z,74.20
2018-03-28T07:05:28.375Z,72.70
2018-03-28T07:07:57.106Z,72.00
2018-03-28T07:10:26.749Z,71.90
2018-03-28T07:12:55.740Z,71.20
2018-03-28T07:15:25.091Z,71.00
2018-03-28T07:17:54.411Z,71.30
2018-03-28T07:20:23.551Z,72.50
2018-03-28T07:22:52.473Z,73.10
2018-03-28T07:25:22.800Z,73.50
2018-03-28T07:27:53.175Z,73.30
2018-03-28T07:30:22.501Z,71.00
2018-03-28T07:32:52.498Z,70.50
2018-03-28T07:35:21.442Z,69.90
2018-03-28T07:37:51.429Z,69.80
2018-03-28T07:40:21.173Z,69.80
2018-03-28T07:42:50.250Z,67.70
2018-03-28T07:45:18.990Z,67.00
2018-03-28T07:47:47.770Z,64.60
2018-03-28T07:50:17.419Z,64.60
2018-03-28T07:52:46.547Z,65.40
2018-03-28T07:55:17.231Z,66.50
2018-03-28T07:57:48.136Z,63.80
2018-03-28T08:00:17.026Z,63.70
2018-03-28T08:02:45.749Z,65.10
2018-03-28T08:05:15.473Z,62.80
2018-03-28T08:07:44.907Z,59.80
2018-03-28T08:10:13.568Z,56.60
2018-03-28T08:12:43.655Z,55.80
2018-03-28T08:15:12.486Z,57.30
2018-03-28T08:17:41.523Z,56.10
2018-03-28T08:20:10.352Z,55.40
2018-03-28T08:22:40.782Z,57.00
2018-03-28T08:25:10.517Z,57.60
2018-03-28T08:27:40.472Z,57.80
2018-03-28T08:30:09.267Z,57.80
2018-03-28T08:32:38.814Z,56.00
2018-03-28T08:35:08.073Z,56.00
2018-03-28T08:37:36.705Z,55.40
2018-03-28T08:40:05.382Z,53.40
2018-03-28T08:42:33.953Z,52.50
2018-03-28T08:45:03.599Z,52.60
2018-03-28T08:47:34.001Z,50.70
2018-03-28T08:50:03.309Z,49.10
2018-03-28T08:52:32.876Z,47.70
2018-03-28T08:55:02.054Z,46.50
2018-03-28T08:57:30.794Z,47.60
2018-03-28T08:59:59.496Z,48.30
2018-03-28T09:02:28.992Z,51.20
2018-03-28T09:04:58.033Z,51.10
2018-03-28T09:07:28.302Z,48.10
2018-03-28T09:09:57.529Z,48.00
2018-03-28T09:12:26.244Z,45.20
2018-03-28T09:14:55.290Z,44.90
2018-03-28T09:17:25.526Z,44.20
2018-03-28T09:19:55.707Z,42.80
2018-03-28T09:22:25.223Z,41.40
2018-03-28T09:24:54.629Z,41.30
2018-03-28T09:27:23.553Z,40.50
2018-03-28T09:29:53.435Z,43.70
2018-03-28T09:32:23.702Z,41.50
2018-03-28T09:34:52.551Z,41.50
2018-03-28T09:37:21.541Z,40.80
2018-03-28T09:39:50.676Z,38.90
2018-03-28T09:42:21.542Z,44.90
2018-03-28T09:44:52.846Z,44.90
2018-03-28T09:47:22.176Z,47.70
2018-03-28T09:49:51.276Z,46.10
2018-03-28T09:52:20.206Z,43.20
2018-03-28T09:54:50.417Z,42.50
2018-03-28T09:57:19.332Z,44.80
2018-03-28T09:59:49.028Z,43.50
2018-03-28T10:02:18.650Z,39.40
2018-03-28T10:04:50.213Z,40.40
2018-03-28T10:07:20.726Z,39.70
2018-03-28T10:09:49.672Z,39.70
2018-03-28T10:12:19.024Z,38.60
2018-03-28T10:14:48.378Z,38.70
2018-03-28T10:17:19.053Z,35.60
2018-03-28T10:19:47.791Z,35.60
2018-03-28T10:22:17.356Z,34.70
2018-03-28T10:24:46.476Z,34.60
2018-03-28T10:27:15.196Z,33.80
2018-03-28T10:29:45.327Z,34.50
2018-03-28T10:32:14.676Z,39.30
2018-03-28T10:34:44.288Z,39.20
2018-03-28T10:37:13.439Z,37.90
2018-03-28T10:39:43.310Z,35.10
2018-03-28T10:42:11.874Z,34.00
2018-03-28T10:44:40.942Z,34.20
2018-03-28T10:47:10.075Z,35.60
2018-03-28T10:49:39.193Z,38.30
2018-03-28T10:52:07.946Z,43.30
2018-03-28T10:54:37.718Z,39.60
2018-03-28T10:57:07.531Z,39.60
2018-03-28T10:59:36.385Z,39.90
2018-03-28T11:02:06.318Z,38.10
2018-03-28T11:04:38.682Z,36.30
2018-03-28T11:07:08.110Z,35.50
2018-03-28T11:09:36.903Z,34.90
2018-03-28T11:12:05.964Z,35.70
2018-03-28T11:14:34.668Z,37.50
2018-03-28T11:17:04.125Z,37.50
2018-03-28T11:19:33.644Z,36.80
2018-03-28T11:22:02.302Z,35.60
2018-03-28T11:24:31.069Z,33.40
2018-03-28T11:27:02.619Z,29.60
2018-03-28T11:29:32.175Z,29.60
2018-03-28T11:32:01.268Z,29.50
2018-03-28T11:34:30.745Z,29.90
2018-03-28T11:36:59.497Z,31.50
2018-03-28T11:39:28.726Z,35.00
2018-03-28T11:41:57.658Z,37.10
2018-03-28T11:44:26.443Z,38.20
2018-03-28T11:46:55.466Z,38.70
2018-03-28T11:49:26.216Z,37.10
2018-03-28T11:51:55.202Z,34.90
2018-03-28T11:54:23.961Z,35.00
2018-03-28T11:56:55.871Z,36.50
2018-03-28T11:59:25.635Z,35.60
2018-03-28T12:01:54.706Z,35.60
2018-03-28T12:04:23.969Z,36.70
2018-03-28T12:06:52.662Z,35.10
2018-03-28T12:09:21.825Z,33.70
2018-03-28T12:11:50.666Z,33.10
2018-03-28T12:14:19.587Z,34.10
2018-03-28T12:16:48.746Z,34.80
2018-03-28T12:19:18.309Z,33.00
2018-03-28T12:21:47.516Z,30.70
2018-03-28T12:24:17.589Z,29.30
2018-03-28T12:26:47.914Z,29.30
2018-03-28T12:29:17.217Z,29.10
2018-03-28T12:31:45.871Z,28.80
2018-03-28T12:34:15.213Z,29.00
2018-03-28T12:36:44.257Z,28.20
2018-03-28T12:39:13.574Z,28.40
2018-03-28T12:44:35.281Z,29.20
2018-03-28T12:47:05.318Z,29.60
2018-03-28T12:49:33.934Z,29.20
2018-03-28T12:52:02.746Z,29.40
2018-03-28T12:54:31.390Z,29.60
2018-03-28T12:59:53.939Z,34.20
2018-03-28T13:02:23.421Z,32.60
2018-03-28T13:04:52.109Z,32.60
2018-03-28T13:07:21.141Z,33.40
2018-03-28T13:09:49.780Z,34.80
2018-03-28T13:12:20.823Z,33.50
2018-03-28T13:14:50.477Z,33.40
2018-03-28T13:17:21.096Z,33.50
2018-03-28T13:19:49.772Z,34.10
2018-03-28T13:22:22.151Z,35.30
2018-03-28T13:24:51.713Z,34.90
2018-03-28T13:27:20.538Z,34.80
2018-03-28T13:29:49.150Z,36.20
2018-03-28T13:32:17.898Z,36.70
2018-03-28T13:34:47.343Z,37.90
2018-03-28T13:37:16.361Z,37.70
2018-03-28T13:39:45.057Z,37.70
2018-03-28T13:42:14.803Z,35.90
2018-03-28T13:44:43.821Z,35.80
2018-03-28T13:47:12.479Z,35.50
2018-03-28T13:49:41.147Z,33.10
2018-03-28T13:52:09.778Z,33.50
2018-03-28T13:54:38.388Z,33.70
2018-03-28T13:57:06.983Z,35.50
2018-03-28T13:59:35.644Z,36.10
2018-03-28T14:02:04.323Z,37.10
2018-03-28T14:04:33.727Z,38.00
2018-03-28T14:07:02.775Z,37.90
2018-03-28T14:09:32.284Z,39.70
2018-03-28T14:12:01.070Z,39.70
2018-03-28T14:14:30.365Z,40.20
2018-03-28T14:16:59.617Z,39.40
2018-03-28T14:19:28.303Z,39.70
2018-03-28T14:21:57.717Z,41.10
2018-03-28T14:24:26.377Z,41.10
2018-03-28T14:26:55.797Z,42.40
2018-03-28T14:29:24.614Z,41.80
2018-03-28T14:31:54.070Z,41.60
2018-03-28T14:34:23.279Z,41.60
2018-03-28T14:36:51.931Z,40.00
2018-03-28T14:39:20.524Z,40.10
2018-03-28T14:41:49.198Z,39.50
2018-03-28T14:44:18.394Z,38.30
2018-03-28T14:46:47.630Z,38.00
2018-03-28T14:49:17.175Z,37.70
2018-03-28T14:51:45.800Z,37.60
2018-03-28T14:54:14.585Z,38.10
2018-03-28T14:56:43.201Z,38.60
2018-03-28T14:59:12.769Z,38.60
2018-03-28T15:01:41.457Z,39.10
2018-03-28T15:04:10.125Z,40.50
2018-03-28T15:06:38.893Z,40.70
2018-03-28T15:09:08.741Z,40.10
2018-03-28T15:11:38.115Z,38.90
2018-03-28T15:14:07.122Z,38.90
2018-03-28T15:16:37.447Z,38.60
2018-03-28T15:19:06.266Z,38.60
2018-03-28T15:21:34.936Z,39.80
2018-03-28T15:24:04.413Z,39.00
2018-03-28T15:26:33.217Z,38.90
2018-03-28T15:29:02.282Z,39.60
2018-03-28T15:31:30.998Z,39.10
2018-03-28T15:33:59.669Z,38.30
2018-03-28T15:36:28.434Z,38.10
2018-03-28T15:38:57.245Z,37.90
2018-03-28T15:41:26.494Z,37.40
2018-03-28T15:43:55.373Z,37.90
2018-03-28T15:46:24.837Z,37.10
2018-03-28T15:48:54.682Z,38.20
2018-03-28T15:51:23.461Z,39.50
2018-03-28T15:53:52.341Z,42.60
2018-03-28T15:56:22.320Z,45.00
2018-03-28T15:58:51.357Z,44.90
2018-03-28T16:01:20.262Z,46.10
2018-03-28T16:03:49.412Z,47.90
2018-03-28T16:06:19.084Z,50.60
2018-03-28T16:08:47.980Z,50.60
2018-03-28T16:11:17.102Z,50.80
2018-03-28T16:13:46.477Z,51.30
2018-03-28T16:16:16.742Z,51.90
2018-03-28T16:18:47.347Z,52.30
2018-03-28T16:21:17.668Z,52.30
2018-03-28T16:23:46.725Z,52.80
2018-03-28T16:26:19.191Z,52.90
2018-03-28T16:28:48.257Z,53.20
2018-03-28T16:31:17.655Z,53.20
2018-03-28T16:33:47.484Z,53.70
2018-03-28T16:36:16.837Z,53.70
2018-03-28T16:38:46.048Z,54.40
2018-03-28T16:41:16.319Z,55.40
2018-03-28T16:43:45.325Z,56.50
2018-03-28T16:46:14.231Z,56.50
2018-03-28T16:48:44.010Z,56.30
2018-03-28T16:51:13.046Z,56.30
2018-03-28T16:53:42.085Z,56.20
2018-03-28T16:56:11.352Z,56.70
2018-03-28T16:58:40.379Z,56.90
2018-03-28T17:01:09.480Z,57.30
2018-03-28T17:03:38.555Z,58.10
2018-03-28T17:06:08.454Z,59.40
2018-03-28T17:08:38.110Z,59.40
2018-03-28T17:11:08.454Z,59.80
2018-03-28T17:13:38.208Z,61.10
2018-03-28T17:16:07.289Z,61.00
2018-03-28T17:18:36.417Z,61.10
2018-03-28T17:21:05.475Z,61.40
2018-03-28T17:23:34.637Z,61.70
2018-03-28T17:26:04.510Z,62.20
2018-03-28T17:28:33.619Z,62.00
2018-03-28T17:31:03.559Z,62.70
2018-03-28T17:33:33.087Z,62.80
2018-03-28T17:36:02.621Z,63.20
2018-03-28T17:38:32.135Z,63.50
2018-03-28T17:41:01.320Z,63.90
2018-03-28T17:43:30.459Z,64.10
2018-03-28T17:45:59.431Z,64.80
2018-03-28T17:48:28.543Z,65.00
2018-03-28T17:50:57.851Z,65.50
2018-03-28T17:53:27.228Z,66.40
2018-03-28T17:55:56.205Z,67.30
2018-03-28T17:58:25.301Z,68.20
2018-03-28T18:00:54.548Z,68.60
2018-03-28T18:03:24.398Z,68.90
2018-03-28T18:05:53.977Z,69.20
2018-03-28T18:08:24.266Z,69.50
2018-03-28T18:10:54.166Z,69.70
2018-03-28T18:13:23.448Z,69.70
2018-03-28T18:15:52.487Z,69.80
2018-03-28T18:18:22.415Z,69.60
2018-03-28T18:20:51.373Z,69.70
2018-03-28T18:23:20.312Z,69.60
2018-03-28T18:25:50.770Z,70.70
2018-03-28T18:28:20.049Z,70.70
2018-03-28T18:30:49.677Z,71.00
2018-03-28T18:33:19.413Z,70.90
2018-03-28T18:35:50.474Z,72.20
2018-03-28T18:38:19.984Z,71.50
2018-03-28T18:40:49.013Z,71.20
2018-03-28T18:43:18.003Z,71.20
2018-03-28T18:45:47.006Z,71.50
2018-03-28T18:48:15.917Z,71.70
2018-03-28T18:50:44.856Z,71.60
2018-03-28T18:53:14.906Z,72.60
2018-03-28T18:55:44.029Z,72.50
2018-03-28T18:58:14.530Z,72.80
2018-03-28T19:00:44.130Z,72.60
2018-03-28T19:03:13.241Z,72.60
2018-03-28T19:05:43.045Z,72.80
2018-03-28T19:08:13.440Z,72.80
2018-03-28T19:10:42.667Z,73.00
2018-03-28T19:13:12.232Z,73.30
2018-03-28T19:15:43.016Z,73.10
2018-03-28T19:18:12.749Z,73.50
2018-03-28T19:20:41.767Z,73.60
2018-03-28T19:23:14.224Z,73.60
2018-03-28T19:25:43.510Z,73.80
2018-03-28T19:28:13.354Z,73.90
2018-03-28T19:30:42.518Z,74.20
2018-03-28T19:33:12.353Z,74.80
2018-03-28T19:35:42.166Z,74.80
2018-03-28T19:38:11.027Z,74.80
2018-03-28T19:40:40.028Z,74.40
2018-03-28T19:43:09.298Z,74.10
2018-03-28T19:45:38.333Z,73.50
2018-03-28T19:48:07.370Z,73.90
2018-03-28T19:50:38.185Z,74.00
2018-03-28T19:53:07.569Z,74.00
2018-03-28T19:55:36.840Z,73.90
2018-03-28T19:58:05.978Z,73.90
2018-03-28T20:00:35.284Z,74.00
2018-03-28T20:03:05.259Z,74.00
2018-03-28T20:05:34.570Z,74.00
2018-03-28T20:08:05.517Z,74.50
2018-03-28T20:10:34.552Z,74.30
2018-03-28T20:13:04.828Z,74.60
2018-03-28T20:15:34.893Z,74.70
2018-03-28T20:18:05.041Z,75.10
2018-03-28T20:20:34.812Z,75.20
2018-03-28T20:23:04.269Z,75.20
2018-03-28T20:25:33.642Z,75.20
2018-03-28T20:28:02.917Z,75.10
2018-03-28T20:30:31.924Z,75.50
2018-03-28T20:33:01.000Z,75.60
2018-03-28T20:35:30.233Z,75.70
2018-03-28T20:37:59.385Z,75.80
2018-03-28T20:40:28.576Z,76.70
2018-03-28T20:42:59.464Z,76.20
2018-03-28T20:45:29.389Z,75.80
2018-03-28T20:47:59.805Z,75.00
2018-03-28T20:50:29.081Z,75.00
2018-03-28T20:52:58.867Z,75.10
2018-03-28T20:55:28.612Z,75.00
2018-03-28T20:57:58.142Z,75.50
2018-03-28T21:00:27.674Z,75.80
2018-03-28T21:02:56.826Z,75.90
2018-03-28T21:05:26.920Z,75.90
2018-03-28T21:07:56.301Z,76.20
2018-03-28T21:10:26.658Z,76.70
2018-03-28T21:12:55.538Z,76.90
2018-03-28T21:15:25.107Z,77.10
2018-03-28T21:17:53.936Z,77.10
2018-03-28T21:20:24.055Z,77.50
2018-03-28T21:22:53.262Z,77.50
2018-03-28T21:25:22.691Z,77.40
2018-03-28T21:27:52.571Z,77.50
2018-03-28T21:30:21.576Z,77.50
2018-03-28T21:32:50.549Z,77.50
2018-03-28T21:35:20.440Z,77.80
2018-03-28T21:37:50.785Z,78.30
2018-03-28T21:40:20.241Z,77.90
2018-03-28T21:42:48.930Z,78.00
2018-03-28T21:45:18.313Z,77.70
2018-03-28T21:47:48.173Z,77.60
2018-03-28T21:50:17.722Z,77.50
2018-03-28T21:52:46.666Z,77.60
2018-03-28T21:55:16.110Z,77.50
2018-03-28T21:57:45.190Z,77.30
2018-03-28T22:00:14.927Z,76.90
2018-03-28T22:02:44.655Z,76.90
2018-03-28T22:05:16.774Z,76.80
2018-03-28T22:07:45.732Z,76.40
2018-03-28T22:10:14.480Z,76.40
2018-03-28T22:12:43.226Z,76.10
2018-03-28T22:15:13.534Z,75.60
2018-03-28T22:17:42.198Z,75.50
2018-03-28T22:20:15.668Z,75.70
2018-03-28T22:22:44.245Z,75.40
2018-03-28T22:25:13.483Z,75.90
2018-03-28T22:27:44.521Z,75.30
2018-03-28T22:30:15.536Z,75.20
2018-03-28T22:32:45.113Z,74.70
2018-03-28T22:35:13.776Z,74.60
2018-03-28T22:37:43.183Z,74.60
2018-03-28T22:40:13.048Z,74.20
2018-03-28T22:42:41.975Z,74.20
2018-03-28T22:45:10.807Z,74.00
2018-03-28T22:47:40.549Z,74.20
2018-03-28T22:50:09.271Z,74.20
2018-03-28T22:52:40.213Z,74.40
2018-03-28T22:55:10.164Z,74.60
2018-03-28T22:57:39.415Z,75.00
2018-03-28T23:00:08.300Z,74.70
2018-03-28T23:02:38.302Z,74.10
2018-03-28T23:05:07.178Z,74.60
2018-03-28T23:07:35.796Z,73.70
2018-03-28T23:10:04.625Z,73.80
2018-03-28T23:12:33.789Z,73.80
2018-03-28T23:15:02.459Z,73.70
2018-03-28T23:17:32.070Z,73.60
2018-03-28T23:20:02.118Z,73.50
2018-03-28T23:22:39.916Z,73.30
2018-03-28T23:25:09.007Z,73.50
2018-03-28T23:27:38.026Z,73.70
2018-03-28T23:30:07.368Z,74.30
2018-03-28T23:32:36.727Z,74.10
2018-03-28T23:35:05.818Z,74.20
2018-03-28T23:37:34.666Z,74.60
2018-03-28T23:40:05.006Z,75.40
2018-03-28T23:42:34.663Z,75.30
2018-03-28T23:45:04.911Z,75.90
2018-03-28T23:47:33.883Z,75.90
2018-03-28T23:50:02.473Z,76.10
2018-03-28T23:52:31.676Z,76.30
2018-03-28T23:55:00.266Z,76.50
2018-03-28T23:57:29.034Z,76.80
2018-03-28T23:59:58.295Z,76.90
